createdAt,value
2018-05-02T00:00:38.705Z,7.40
2018-05-02T00:01:38.686Z,7.39
2018-05-02T00:02:38.641Z,7.36
2018-05-02T00:03:38.624Z,7.37
2018-05-02T00:04:38.560Z,7.36
2018-05-02T00:05:38.526Z,7.29
2018-05-02T00:06:38.483Z,7.31
2018-05-02T00:07:38.482Z,7.33
2018-05-02T00:08:38.451Z,7.34
2018-05-02T00:09:38.444Z,7.36
2018-05-02T00:10:38.401Z,7.36
2018-05-02T00:11:38.353Z,7.41
2018-05-02T00:12:38.320Z,7.41
2018-05-02T00:13:38.273Z,7.41
2018-05-02T00:14:38.293Z,7.41
2018-05-02T00:15:38.256Z,7.44
2018-05-02T00:16:38.203Z,7.45
2018-05-02T00:17:38.216Z,7.40
2018-05-02T00:18:38.147Z,7.41
2018-05-02T00:19:38.135Z,7.44
2018-05-02T00:20:38.093Z,7.39
2018-05-02T00:21:38.079Z,7.30
2018-05-02T00:22:38.068Z,7.37
2018-05-02T00:23:38.008Z,7.34
2018-05-02T00:24:37.985Z,7.36
2018-05-02T00:25:37.997Z,7.31
2018-05-02T00:26:37.911Z,7.26
2018-05-02T00:27:37.933Z,7.31
2018-05-02T00:28:37.952Z,7.27
2018-05-02T00:29:37.867Z,7.29
2018-05-02T00:30:37.833Z,7.26
2018-05-02T00:31:37.827Z,7.31
2018-05-02T00:32:37.754Z,7.22
2018-05-02T00:33:37.792Z,7.23
2018-05-02T00:34:37.714Z,7.23
2018-05-02T00:35:37.660Z,7.11
2018-05-02T00:36:37.675Z,7.19
2018-05-02T00:37:37.627Z,7.18
2018-05-02T00:38:37.583Z,7.22
2018-05-02T00:39:37.565Z,7.22
2018-05-02T00:40:37.563Z,7.16
2018-05-02T00:41:37.502Z,7.19
2018-05-02T00:42:37.473Z,7.18
2018-05-02T00:43:37.430Z,7.22
2018-05-02T00:44:37.410Z,7.09
2018-05-02T00:45:37.390Z,7.18
2018-05-02T00:46:37.356Z,7.19
2018-05-02T00:47:37.346Z,7.12
2018-05-02T00:48:37.338Z,7.03
2018-05-02T00:49:37.295Z,7.19
2018-05-02T00:50:37.234Z,7.19
2018-05-02T00:51:37.217Z,7.19
2018-05-02T00:52:37.233Z,7.04
2018-05-02T00:53:37.151Z,7.01
2018-05-02T00:54:37.142Z,7.11
2018-05-02T00:55:37.095Z,7.05
2018-05-02T00:56:37.074Z,7.11
2018-05-02T00:57:37.036Z,7.12
2018-05-02T00:58:37.036Z,7.08
2018-05-02T00:59:36.970Z,7.04
2018-05-02T01:00:36.952Z,7.04
2018-05-02T01:01:36.951Z,7.04
2018-05-02T01:02:36.922Z,7.09
2018-05-02T01:03:36.899Z,7.04
2018-05-02T01:04:36.902Z,7.04
2018-05-02T01:05:36.839Z,7.05
2018-05-02T01:06:36.817Z,7.08
2018-05-02T01:07:36.754Z,7.01
2018-05-02T01:08:36.710Z,6.98
2018-05-02T01:09:36.734Z,6.98
2018-05-02T01:10:36.698Z,6.98
2018-05-02T01:11:36.672Z,6.98
2018-05-02T01:12:36.655Z,6.97
2018-05-02T01:13:36.576Z,6.94
2018-05-02T01:14:36.561Z,6.97
2018-05-02T01:15:36.575Z,6.97
2018-05-02T01:16:36.535Z,6.93
2018-05-02T01:17:36.463Z,6.85
2018-05-02T01:18:36.452Z,6.93
2018-05-02T01:19:36.436Z,6.98
2018-05-02T01:20:36.413Z,6.95
2018-05-02T01:21:36.351Z,6.98
2018-05-02T01:22:36.336Z,6.97
2018-05-02T01:23:36.325Z,7.00
2018-05-02T01:24:36.256Z,7.01
2018-05-02T01:25:36.267Z,6.95
2018-05-02T01:26:36.208Z,6.98
2018-05-02T01:27:36.176Z,7.00
2018-05-02T01:28:36.174Z,7.01
2018-05-02T01:29:36.126Z,6.86
2018-05-02T01:30:36.095Z,6.91
2018-05-02T01:31:36.072Z,6.79
2018-05-02T01:32:36.061Z,6.79
2018-05-02T01:33:36.024Z,6.80
2018-05-02T01:34:35.985Z,6.76
2018-05-02T01:35:35.959Z,6.73
2018-05-02T01:36:35.940Z,6.83
2018-05-02T01:37:35.924Z,6.79
2018-05-02T01:38:35.885Z,6.73
2018-05-02T01:39:35.857Z,6.83
2018-05-02T01:40:35.846Z,6.88
2018-05-02T01:41:35.847Z,6.86
2018-05-02T01:42:35.765Z,6.88
2018-05-02T01:43:35.751Z,6.86
2018-05-02T01:44:35.689Z,6.85
2018-05-02T01:45:35.700Z,6.88
2018-05-02T01:46:35.663Z,6.86
2018-05-02T01:47:35.646Z,6.80
2018-05-02T01:48:35.615Z,6.88
2018-05-02T01:49:35.591Z,6.90
2018-05-02T01:50:35.544Z,6.79
2018-05-02T01:51:35.502Z,6.86
2018-05-02T01:52:35.462Z,6.86
2018-05-02T01:53:35.443Z,6.76
2018-05-02T01:54:35.427Z,6.76
2018-05-02T01:55:35.438Z,6.75
2018-05-02T01:56:35.354Z,6.70
2018-05-02T01:57:35.359Z,6.67
2018-05-02T01:58:35.334Z,6.68
2018-05-02T01:59:35.268Z,6.58
2018-05-02T02:00:35.231Z,6.60
2018-05-02T02:01:35.226Z,6.57
2018-05-02T02:02:35.187Z,6.60
2018-05-02T02:03:35.148Z,6.54
2018-05-02T02:04:35.118Z,6.55
2018-05-02T02:05:35.137Z,6.60
2018-05-02T02:06:35.099Z,6.52
2018-05-02T02:07:35.041Z,6.55
2018-05-02T02:08:35.051Z,6.64
2018-05-02T02:09:35.022Z,6.61
2018-05-02T02:10:35.048Z,6.65
2018-05-02T02:11:34.935Z,6.76
2018-05-02T02:12:34.938Z,6.70
2018-05-02T02:13:34.854Z,6.64
2018-05-02T02:14:34.880Z,6.64
2018-05-02T02:15:34.861Z,6.60
2018-05-02T02:16:34.846Z,6.58
2018-05-02T02:17:34.746Z,6.47
2018-05-02T02:18:34.748Z,6.62
2018-05-02T02:19:34.724Z,6.58
2018-05-02T02:20:34.670Z,6.61
2018-05-02T02:21:34.630Z,6.58
2018-05-02T02:22:34.628Z,6.61
2018-05-02T02:23:34.612Z,6.62
2018-05-02T02:24:34.583Z,6.52
2018-05-02T02:25:34.525Z,6.61
2018-05-02T02:26:34.534Z,6.64
2018-05-02T02:27:34.464Z,6.57
2018-05-02T02:28:34.455Z,6.58
2018-05-02T02:29:34.420Z,6.61
2018-05-02T02:30:34.434Z,6.51
2018-05-02T02:31:34.404Z,6.55
2018-05-02T02:32:34.339Z,6.54
2018-05-02T02:33:34.319Z,6.57
2018-05-02T02:34:34.261Z,6.51
2018-05-02T02:35:34.227Z,6.44
2018-05-02T02:36:34.275Z,6.44
2018-05-02T02:37:34.189Z,6.44
2018-05-02T02:38:34.225Z,6.44
2018-05-02T02:39:34.114Z,6.51
2018-05-02T02:40:34.138Z,6.60
2018-05-02T02:41:34.085Z,6.54
2018-05-02T02:42:34.049Z,6.55
2018-05-02T02:43:34.096Z,6.62
2018-05-02T02:44:34.021Z,6.60
2018-05-02T02:45:34.031Z,6.47
2018-05-02T02:46:33.926Z,6.49
2018-05-02T02:47:33.893Z,6.51
2018-05-02T02:48:33.888Z,6.44
2018-05-02T02:49:33.856Z,6.54
2018-05-02T02:50:33.794Z,6.44
2018-05-02T02:51:33.779Z,6.49
2018-05-02T02:52:33.770Z,6.33
2018-05-02T02:53:33.767Z,6.31
2018-05-02T02:54:33.681Z,6.29
2018-05-02T02:55:33.646Z,6.26
2018-05-02T02:56:33.676Z,6.29
2018-05-02T02:57:33.648Z,6.36
2018-05-02T02:58:33.565Z,6.34
2018-05-02T02:59:33.559Z,6.37
2018-05-02T03:00:33.536Z,6.34
2018-05-02T03:01:33.523Z,6.36
2018-05-02T03:02:33.449Z,6.40
2018-05-02T03:03:33.423Z,6.34
2018-05-02T03:04:33.420Z,6.39
2018-05-02T03:05:33.372Z,6.43
2018-05-02T03:06:33.355Z,6.34
2018-05-02T03:07:33.334Z,6.36
2018-05-02T03:08:33.316Z,6.44
2018-05-02T03:09:33.240Z,6.39
2018-05-02T03:10:33.201Z,6.36
2018-05-02T03:11:33.222Z,6.36
2018-05-02T03:12:33.216Z,6.36
2018-05-02T03:13:33.121Z,6.36
2018-05-02T03:14:33.110Z,6.39
2018-05-02T03:15:33.099Z,6.34
2018-05-02T03:16:33.078Z,6.33
2018-05-02T03:17:33.040Z,6.33
2018-05-02T03:18:33.010Z,6.34
2018-05-02T03:19:32.948Z,6.36
2018-05-02T03:20:32.956Z,6.29
2018-05-02T03:21:32.896Z,6.31
2018-05-02T03:22:32.904Z,6.29
2018-05-02T03:23:32.836Z,6.37
2018-05-02T03:24:32.815Z,6.26
2018-05-02T03:25:32.834Z,6.26
2018-05-02T03:26:32.766Z,6.29
2018-05-02T03:27:32.768Z,6.14
2018-05-02T03:28:32.698Z,6.13
2018-05-02T03:29:32.677Z,6.09
2018-05-02T03:30:32.643Z,6.07
2018-05-02T03:31:32.643Z,6.17
2018-05-02T03:32:32.597Z,6.17
2018-05-02T03:33:32.556Z,6.13
2018-05-02T03:34:32.603Z,6.17
2018-05-02T03:35:32.491Z,6.17
2018-05-02T03:36:32.540Z,6.31
2018-05-02T03:37:32.467Z,6.31
2018-05-02T03:38:32.421Z,6.29
2018-05-02T03:39:32.379Z,6.31
2018-05-02T03:40:32.367Z,6.31
2018-05-02T03:41:32.361Z,6.31
2018-05-02T03:42:32.354Z,6.24
2018-05-02T03:43:32.270Z,6.18
2018-05-02T03:44:32.283Z,6.13
2018-05-02T03:45:32.289Z,6.29
2018-05-02T03:46:32.200Z,6.26
2018-05-02T03:47:32.193Z,6.29
2018-05-02T03:48:32.154Z,6.29
2018-05-02T03:49:32.111Z,6.28
2018-05-02T03:50:32.071Z,6.31
2018-05-02T03:51:32.047Z,6.25
2018-05-02T03:52:32.043Z,6.28
2018-05-02T03:53:32.047Z,6.28
2018-05-02T03:54:31.975Z,6.33
2018-05-02T03:55:31.904Z,6.31
2018-05-02T03:56:31.938Z,6.33
2018-05-02T03:57:31.877Z,6.31
2018-05-02T03:58:31.898Z,6.29
2018-05-02T03:59:31.824Z,6.26
2018-05-02T04:00:31.829Z,6.31
2018-05-02T04:01:31.768Z,6.28
2018-05-02T04:02:31.794Z,6.36
2018-05-02T04:03:31.696Z,6.24
2018-05-02T04:04:31.691Z,6.33
2018-05-02T04:05:31.659Z,6.24
2018-05-02T04:06:31.603Z,6.33
2018-05-02T04:07:31.619Z,6.33
2018-05-02T04:08:31.560Z,6.31
2018-05-02T04:09:31.544Z,6.29
2018-05-02T04:10:31.479Z,6.39
2018-05-02T04:11:31.500Z,6.39
2018-05-02T04:12:31.429Z,6.39
2018-05-02T04:13:31.405Z,6.42
2018-05-02T04:14:31.371Z,6.47
2018-05-02T04:15:31.327Z,6.54
2018-05-02T04:16:31.303Z,6.47
2018-05-02T04:17:31.293Z,6.34
2018-05-02T04:18:31.280Z,6.37
2018-05-02T04:19:31.233Z,6.36
2018-05-02T04:20:31.191Z,6.34
2018-05-02T04:21:31.185Z,6.40
2018-05-02T04:22:31.153Z,6.37
2018-05-02T04:23:31.106Z,6.26
2018-05-02T04:24:31.077Z,6.28
2018-05-02T04:25:31.042Z,6.31
2018-05-02T04:26:31.035Z,6.31
2018-05-02T04:27:30.979Z,6.34
2018-05-02T04:28:30.971Z,6.24
2018-05-02T04:29:30.919Z,6.20
2018-05-02T04:30:30.904Z,6.28
2018-05-02T04:31:30.881Z,6.33
2018-05-02T04:32:30.863Z,6.29
2018-05-02T04:33:30.831Z,6.33
2018-05-02T04:34:30.782Z,6.34
2018-05-02T04:35:30.792Z,6.33
2018-05-02T04:36:30.750Z,6.39
2018-05-02T04:37:30.705Z,6.39
2018-05-02T04:38:30.683Z,6.42
2018-05-02T04:39:30.719Z,6.47
2018-05-02T04:40:30.647Z,6.47
2018-05-02T04:41:30.619Z,6.51
2018-05-02T04:42:30.591Z,6.43
2018-05-02T04:43:31.032Z,6.44
2018-05-02T04:44:30.525Z,6.46
2018-05-02T04:45:30.510Z,6.51
2018-05-02T04:46:30.469Z,6.58
2018-05-02T04:47:30.396Z,6.55
2018-05-02T04:48:30.412Z,6.62
2018-05-02T04:49:30.360Z,6.64
2018-05-02T04:50:30.381Z,6.60
2018-05-02T04:51:30.317Z,6.65
2018-05-02T04:52:30.269Z,6.79
2018-05-02T04:53:30.247Z,6.73
2018-05-02T04:54:30.208Z,6.88
2018-05-02T04:55:30.211Z,6.85
2018-05-02T04:56:30.166Z,6.82
2018-05-02T04:57:30.138Z,6.90
2018-05-02T04:58:30.094Z,6.88
2018-05-02T04:59:30.128Z,6.90
2018-05-02T05:00:30.022Z,6.98
2018-05-02T05:01:30.046Z,6.97
2018-05-02T05:02:30.015Z,7.03
2018-05-02T05:03:30.012Z,7.03
2018-05-02T05:04:29.913Z,6.95
2018-05-02T05:05:29.920Z,6.97
2018-05-02T05:06:29.884Z,6.98
2018-05-02T05:07:29.830Z,6.98
2018-05-02T05:08:29.848Z,7.00
2018-05-02T05:09:29.812Z,7.04
2018-05-02T05:10:29.760Z,7.04
2018-05-02T05:11:29.708Z,7.05
2018-05-02T05:12:29.725Z,7.11
2018-05-02T05:13:29.644Z,7.11
2018-05-02T05:14:29.630Z,7.00
2018-05-02T05:15:29.634Z,7.13
2018-05-02T05:16:29.580Z,7.01
2018-05-02T05:17:29.560Z,7.19
2018-05-02T05:18:29.520Z,7.18
2018-05-02T05:19:29.529Z,7.15
2018-05-02T05:20:29.469Z,7.15
2018-05-02T05:21:29.485Z,7.15
2018-05-02T05:22:31.129Z,7.19
2018-05-02T05:23:29.386Z,7.16
2018-05-02T05:24:29.320Z,7.21
2018-05-02T05:25:29.313Z,7.19
2018-05-02T05:26:29.309Z,7.22
2018-05-02T05:27:29.242Z,7.23
2018-05-02T05:28:29.213Z,7.34
2018-05-02T05:29:29.221Z,7.36
2018-05-02T05:30:29.204Z,7.31
2018-05-02T05:31:29.156Z,7.37
2018-05-02T05:32:29.120Z,7.49
2018-05-02T05:33:29.166Z,7.47
2018-05-02T05:34:29.088Z,7.49
2018-05-02T05:35:29.051Z,7.40
2018-05-02T05:36:29.042Z,7.47
2018-05-02T05:37:28.986Z,7.55
2018-05-02T05:38:28.946Z,7.40
2018-05-02T05:39:28.894Z,7.48
2018-05-02T05:40:28.928Z,7.51
2018-05-02T05:41:28.892Z,7.58
2018-05-02T05:42:29.534Z,7.54
2018-05-02T05:43:28.815Z,7.51
2018-05-02T05:44:28.768Z,7.58
2018-05-02T05:45:28.821Z,7.64
2018-05-02T05:46:28.715Z,7.67
2018-05-02T05:47:28.671Z,7.61
2018-05-02T05:48:28.642Z,7.61
2018-05-02T05:49:28.636Z,7.77
2018-05-02T05:50:28.662Z,7.71
2018-05-02T05:51:28.579Z,7.77
2018-05-02T05:52:28.577Z,7.67
2018-05-02T05:53:28.501Z,7.71
2018-05-02T05:54:28.629Z,7.70
2018-05-02T05:55:28.461Z,7.59
2018-05-02T05:56:28.456Z,7.71
2018-05-02T05:57:28.412Z,7.74
2018-05-02T05:58:28.375Z,7.75
2018-05-02T05:59:28.341Z,7.78
2018-05-02T06:00:28.359Z,7.88
2018-05-02T06:01:28.344Z,7.92
2018-05-02T06:02:28.266Z,7.91
2018-05-02T06:03:28.251Z,8.03
2018-05-02T06:04:28.220Z,8.10
2018-05-02T06:05:28.179Z,8.09
2018-05-02T06:06:28.155Z,8.17
2018-05-02T06:07:28.133Z,8.21
2018-05-02T06:08:28.097Z,8.29
2018-05-02T06:09:28.084Z,8.39
2018-05-02T06:10:28.044Z,8.39
2018-05-02T06:11:27.996Z,8.39
2018-05-02T06:12:27.997Z,8.47
2018-05-02T06:13:27.990Z,8.52
2018-05-02T06:14:27.914Z,8.34
2018-05-02T06:15:27.941Z,8.47
2018-05-02T06:16:27.889Z,8.52
2018-05-02T06:17:27.836Z,8.76
2018-05-02T06:18:27.838Z,8.89
2018-05-02T06:19:27.781Z,9.08
2018-05-02T06:20:27.775Z,9.08
2018-05-02T06:21:27.746Z,9.20
2018-05-02T06:22:27.737Z,9.27
2018-05-02T06:23:27.662Z,9.37
2018-05-02T06:24:27.662Z,9.44
2018-05-02T06:25:27.678Z,9.55
2018-05-02T06:26:27.603Z,9.55
2018-05-02T06:27:27.587Z,9.55
2018-05-02T06:28:27.536Z,9.53
2018-05-02T06:29:27.522Z,9.59
2018-05-02T06:30:27.539Z,9.66
2018-05-02T06:31:27.470Z,9.77
2018-05-02T06:32:27.432Z,9.78
2018-05-02T06:33:27.435Z,9.71
2018-05-02T06:34:27.444Z,9.81
2018-05-02T06:35:27.350Z,9.81
2018-05-02T06:36:27.358Z,9.93
2018-05-02T06:37:27.302Z,10.00
2018-05-02T06:38:27.284Z,10.07
2018-05-02T06:39:27.236Z,10.11
2018-05-02T06:40:27.324Z,10.00
2018-05-02T06:41:27.187Z,10.15
2018-05-02T06:42:27.168Z,10.21
2018-05-02T06:43:27.168Z,10.29
2018-05-02T06:44:27.112Z,10.26
2018-05-02T06:45:27.109Z,10.25
2018-05-02T06:46:27.142Z,10.31
2018-05-02T06:47:27.052Z,10.39
2018-05-02T06:48:27.005Z,10.25
2018-05-02T06:49:26.961Z,10.25
2018-05-02T06:50:26.943Z,10.31
2018-05-02T06:51:26.946Z,10.44
2018-05-02T06:52:26.940Z,10.54
2018-05-02T06:53:26.923Z,10.42
2018-05-02T06:54:26.891Z,10.42
2018-05-02T06:55:26.853Z,10.41
2018-05-02T06:56:26.788Z,10.41
2018-05-02T06:57:27.590Z,10.54
2018-05-02T06:58:26.801Z,10.55
2018-05-02T06:59:26.711Z,10.67
2018-05-02T07:00:26.693Z,10.73
2018-05-02T07:01:26.660Z,10.84
2018-05-02T07:02:26.619Z,10.73
2018-05-02T07:03:26.619Z,10.75
2018-05-02T07:04:26.593Z,10.73
2018-05-02T07:05:26.526Z,10.73
2018-05-02T07:06:26.529Z,10.75
2018-05-02T07:07:26.544Z,10.75
2018-05-02T07:08:26.514Z,10.91
2018-05-02T07:09:26.458Z,10.80
2018-05-02T07:10:26.419Z,10.92
2018-05-02T07:11:26.374Z,11.00
2018-05-02T07:12:26.367Z,11.02
2018-05-02T07:13:26.410Z,10.97
2018-05-02T07:14:26.362Z,11.02
2018-05-02T07:15:26.290Z,11.03
2018-05-02T07:16:26.289Z,11.03
2018-05-02T07:17:26.247Z,11.00
2018-05-02T07:18:26.259Z,11.05
2018-05-02T07:19:26.166Z,11.26
2018-05-02T07:20:26.223Z,11.31
2018-05-02T07:21:26.131Z,11.30
2018-05-02T07:22:26.088Z,11.31
2018-05-02T07:23:26.145Z,11.28
2018-05-02T07:24:26.037Z,11.38
2018-05-02T07:25:26.050Z,11.38
2018-05-02T07:26:26.010Z,11.42
2018-05-02T07:27:26.029Z,11.33
2018-05-02T07:28:25.952Z,11.49
2018-05-02T07:29:25.918Z,11.43
2018-05-02T07:30:25.936Z,11.56
2018-05-02T07:31:25.889Z,11.56
2018-05-02T07:32:25.924Z,11.53
2018-05-02T07:33:25.816Z,11.49
2018-05-02T07:34:25.811Z,11.63
2018-05-02T07:35:25.789Z,11.66
2018-05-02T07:36:25.772Z,11.73
2018-05-02T07:37:25.698Z,11.75
2018-05-02T07:38:25.729Z,11.78
2018-05-02T07:39:25.639Z,11.81
2018-05-02T07:40:25.637Z,11.94
2018-05-02T07:41:25.596Z,11.95
2018-05-02T07:42:25.584Z,11.98
2018-05-02T07:43:25.541Z,12.00
2018-05-02T07:44:25.550Z,12.07
2018-05-02T07:45:25.495Z,12.13
2018-05-02T07:46:25.478Z,12.18
2018-05-02T07:47:25.442Z,12.29
2018-05-02T07:48:25.414Z,12.38
2018-05-02T07:49:25.393Z,12.31
2018-05-02T07:50:25.358Z,12.45
2018-05-02T07:51:25.345Z,12.41
2018-05-02T07:52:25.315Z,12.43
2018-05-02T07:53:25.295Z,12.51
2018-05-02T07:54:25.254Z,12.51
2018-05-02T07:55:25.353Z,12.51
2018-05-02T07:56:25.311Z,12.51
2018-05-02T07:57:25.202Z,12.62
2018-05-02T07:58:25.168Z,12.62
2018-05-02T07:59:25.166Z,12.55
2018-05-02T08:00:25.123Z,12.62
2018-05-02T08:01:25.073Z,12.55
2018-05-02T08:02:25.056Z,12.62
2018-05-02T08:03:25.031Z,12.76
2018-05-02T08:04:25.001Z,12.70
2018-05-02T08:05:25.038Z,12.74
2018-05-02T08:06:24.978Z,12.83
2018-05-02T08:07:24.957Z,12.84
2018-05-02T08:08:24.925Z,12.92
2018-05-02T08:09:24.874Z,12.96
2018-05-02T08:10:24.918Z,12.99
2018-05-02T08:11:24.826Z,13.02
2018-05-02T08:12:24.823Z,13.10
2018-05-02T08:13:24.802Z,13.07
2018-05-02T08:14:24.749Z,13.21
2018-05-02T08:15:24.736Z,13.19
2018-05-02T08:16:24.746Z,13.27
2018-05-02T08:17:24.682Z,13.19
2018-05-02T08:18:24.691Z,13.28
2018-05-02T08:19:24.666Z,13.28
2018-05-02T08:20:24.591Z,13.28
2018-05-02T08:21:24.583Z,13.29
2018-05-02T08:22:24.557Z,13.32
2018-05-02T08:23:24.585Z,13.32
2018-05-02T08:24:24.503Z,13.28
2018-05-02T08:25:24.506Z,13.47
2018-05-02T08:26:24.458Z,13.45
2018-05-02T08:27:24.425Z,13.50
2018-05-02T08:28:24.394Z,13.45
2018-05-02T08:29:24.369Z,13.53
2018-05-02T08:30:24.347Z,13.60
2018-05-02T08:31:24.305Z,13.63
2018-05-02T08:32:24.282Z,13.70
2018-05-02T08:33:24.294Z,13.62
2018-05-02T08:34:24.234Z,13.70
2018-05-02T08:35:24.203Z,13.68
2018-05-02T08:36:24.194Z,13.68
2018-05-02T08:37:24.209Z,13.62
2018-05-02T08:38:24.164Z,13.65
2018-05-02T08:39:24.151Z,13.57
2018-05-02T08:40:24.112Z,13.62
2018-05-02T08:41:24.052Z,13.68
2018-05-02T08:42:24.052Z,13.72
2018-05-02T08:43:24.023Z,13.81
2018-05-02T08:44:24.029Z,13.76
2018-05-02T08:45:24.032Z,13.81
2018-05-02T08:46:23.947Z,13.87
2018-05-02T08:47:23.945Z,13.99
2018-05-02T08:48:23.913Z,13.93
2018-05-02T08:49:23.876Z,14.11
2018-05-02T08:50:23.873Z,14.08
2018-05-02T08:51:23.849Z,14.19
2018-05-02T08:52:23.845Z,14.42
2018-05-02T08:53:23.775Z,14.36
2018-05-02T08:54:23.753Z,14.49
2018-05-02T08:55:23.756Z,14.48
2018-05-02T08:56:23.818Z,14.80
2018-05-02T08:57:23.683Z,14.80
2018-05-02T08:58:23.659Z,14.85
2018-05-02T08:59:23.635Z,14.87
2018-05-02T09:00:24.467Z,14.97
2018-05-02T09:01:23.595Z,15.05
2018-05-02T09:02:23.556Z,14.98
2018-05-02T09:03:23.514Z,14.90
2018-05-02T09:04:23.491Z,14.86
2018-05-02T09:05:23.477Z,14.70
2018-05-02T09:06:23.808Z,14.70
2018-05-02T09:07:23.476Z,14.86
2018-05-02T09:08:23.431Z,14.75
2018-05-02T09:09:23.381Z,14.80
2018-05-02T09:10:23.353Z,14.70
2018-05-02T09:11:23.335Z,14.83
2018-05-02T09:12:23.453Z,14.83
2018-05-02T09:13:23.275Z,14.85
2018-05-02T09:14:23.300Z,14.85
2018-05-02T09:15:23.219Z,14.90
2018-05-02T09:16:23.251Z,14.94
2018-05-02T09:17:23.192Z,15.05
2018-05-02T09:18:23.189Z,15.04
2018-05-02T09:19:23.140Z,15.13
2018-05-02T09:20:23.111Z,15.10
2018-05-02T09:21:23.086Z,15.16
2018-05-02T09:22:23.088Z,15.10
2018-05-02T09:23:23.046Z,15.16
2018-05-02T09:24:22.998Z,15.13
2018-05-02T09:25:22.995Z,15.15
2018-05-02T09:26:22.963Z,15.20
2018-05-02T09:27:22.923Z,15.31
2018-05-02T09:28:22.920Z,15.20
2018-05-02T09:29:22.882Z,15.23
2018-05-02T09:30:22.890Z,15.18
2018-05-02T09:31:22.873Z,15.07
2018-05-02T09:32:22.813Z,14.95
2018-05-02T09:33:22.793Z,14.93
2018-05-02T09:34:22.814Z,14.69
2018-05-02T09:35:22.750Z,14.69
2018-05-02T09:36:22.716Z,14.69
2018-05-02T09:37:22.685Z,14.70
2018-05-02T09:38:22.654Z,14.70
2018-05-02T09:39:22.639Z,14.80
2018-05-02T09:40:22.659Z,14.86
2018-05-02T09:41:22.611Z,14.89
2018-05-02T09:42:22.610Z,14.94
2018-05-02T09:43:22.554Z,14.89
2018-05-02T09:44:22.530Z,14.90
2018-05-02T09:45:22.495Z,14.94
2018-05-02T09:46:22.478Z,14.95
2018-05-02T09:47:22.445Z,15.02
2018-05-02T09:48:22.432Z,15.05
2018-05-02T09:49:22.420Z,15.15
2018-05-02T09:50:22.530Z,15.13
2018-05-02T09:51:22.394Z,15.26
2018-05-02T09:52:22.387Z,15.20
2018-05-02T09:53:22.309Z,15.37
2018-05-02T09:54:22.406Z,15.51
2018-05-02T09:55:22.294Z,15.44
2018-05-02T09:56:22.304Z,15.35
2018-05-02T09:57:22.232Z,15.38
2018-05-02T09:58:22.194Z,15.35
2018-05-02T09:59:22.161Z,15.23
2018-05-02T10:00:22.253Z,15.33
2018-05-02T10:01:22.168Z,15.40
2018-05-02T10:02:22.229Z,15.38
2018-05-02T10:03:22.092Z,15.47
2018-05-02T10:04:22.324Z,15.55
2018-05-02T10:05:22.044Z,15.59
2018-05-02T10:06:22.167Z,15.73
2018-05-02T10:07:22.037Z,15.77
2018-05-02T10:08:22.142Z,15.84
2018-05-02T10:09:21.958Z,15.89
2018-05-02T10:10:21.911Z,15.88
2018-05-02T10:11:21.897Z,15.91
2018-05-02T10:12:21.876Z,15.92
2018-05-02T10:13:21.974Z,15.98
2018-05-02T10:14:22.230Z,15.92
2018-05-02T10:15:21.802Z,15.75
2018-05-02T10:16:21.778Z,15.83
2018-05-02T10:17:21.755Z,15.80
2018-05-02T10:18:21.727Z,15.89
2018-05-02T10:19:21.699Z,15.81
2018-05-02T10:20:21.715Z,15.86
2018-05-02T10:21:21.643Z,15.77
2018-05-02T10:22:21.643Z,15.68
2018-05-02T10:23:21.620Z,15.77
2018-05-02T10:24:21.604Z,15.70
2018-05-02T10:25:21.565Z,15.59
2018-05-02T10:26:21.628Z,15.52
2018-05-02T10:27:21.507Z,15.40
2018-05-02T10:28:21.496Z,15.40
2018-05-02T10:29:21.453Z,15.35
2018-05-02T10:30:21.421Z,15.43
2018-05-02T10:31:21.410Z,15.38
2018-05-02T10:32:21.413Z,15.38
2018-05-02T10:33:21.360Z,15.34
2018-05-02T10:34:21.349Z,15.35
2018-05-02T10:35:21.301Z,15.35
2018-05-02T10:36:21.309Z,15.38
2018-05-02T10:37:21.291Z,15.35
2018-05-02T10:38:21.247Z,15.34
2018-05-02T10:39:21.271Z,15.35
2018-05-02T10:40:21.208Z,15.45
2018-05-02T10:41:21.153Z,15.38
2018-05-02T10:42:21.160Z,15.34
2018-05-02T10:43:21.134Z,15.37
2018-05-02T10:44:21.089Z,15.38
2018-05-02T10:45:21.054Z,15.34
2018-05-02T10:46:21.060Z,15.26
2018-05-02T10:47:21.059Z,15.18
2018-05-02T10:48:21.019Z,15.30
2018-05-02T10:49:21.012Z,15.33
2018-05-02T10:50:20.958Z,15.33
2018-05-02T10:51:20.941Z,15.38
2018-05-02T10:52:20.933Z,15.37
2018-05-02T10:53:20.872Z,15.40
2018-05-02T10:54:20.883Z,15.43
2018-05-02T10:55:20.839Z,15.40
2018-05-02T10:56:20.846Z,15.43
2018-05-02T10:57:20.769Z,15.43
2018-05-02T10:58:20.781Z,15.38
2018-05-02T10:59:20.739Z,15.44
2018-05-02T11:00:20.706Z,15.52
2018-05-02T11:01:20.694Z,15.55
2018-05-02T11:02:20.665Z,15.53
2018-05-02T11:03:20.657Z,15.65
2018-05-02T11:04:20.652Z,15.81
2018-05-02T11:05:20.603Z,15.84
2018-05-02T11:06:20.585Z,15.93
2018-05-02T11:07:20.562Z,15.98
2018-05-02T11:08:20.612Z,15.98
2018-05-02T11:09:20.516Z,15.95
2018-05-02T11:10:20.505Z,15.96
2018-05-02T11:11:20.456Z,15.98
2018-05-02T11:12:20.424Z,15.92
2018-05-02T11:13:20.385Z,15.99
2018-05-02T11:14:20.385Z,15.95
2018-05-02T11:15:20.364Z,15.95
2018-05-02T11:16:20.327Z,15.96
2018-05-02T11:17:20.385Z,15.92
2018-05-02T11:18:20.272Z,15.92
2018-05-02T11:19:20.268Z,15.95
2018-05-02T11:20:20.260Z,15.95
2018-05-02T11:21:20.198Z,15.99
2018-05-02T11:22:20.197Z,16.00
2018-05-02T11:23:20.178Z,16.02
2018-05-02T11:24:20.138Z,16.02
2018-05-02T11:25:20.139Z,16.13
2018-05-02T11:26:20.100Z,16.10
2018-05-02T11:27:20.092Z,16.21
2018-05-02T11:28:20.134Z,16.27
2018-05-02T11:29:20.046Z,16.16
2018-05-02T11:30:20.013Z,16.27
2018-05-02T11:31:20.005Z,16.27
2018-05-02T11:32:19.977Z,16.27
2018-05-02T11:33:19.958Z,16.25
2018-05-02T11:34:19.920Z,16.26
2018-05-02T11:35:19.916Z,16.32
2018-05-02T11:36:19.856Z,16.34
2018-05-02T11:37:19.839Z,16.39
2018-05-02T11:38:19.839Z,16.52
2018-05-02T11:39:19.821Z,16.52
2018-05-02T11:40:19.754Z,16.52
2018-05-02T11:41:19.783Z,16.59
2018-05-02T11:42:19.692Z,16.55
2018-05-02T11:43:19.757Z,16.65
2018-05-02T11:44:19.698Z,16.57
2018-05-02T11:45:19.631Z,16.55
2018-05-02T11:46:19.665Z,16.62
2018-05-02T11:47:19.600Z,16.52
2018-05-02T11:48:19.656Z,16.57
2018-05-02T11:49:19.586Z,16.54
2018-05-02T11:50:19.527Z,16.39
2018-05-02T11:51:19.509Z,16.39
2018-05-02T11:52:19.460Z,16.55
2018-05-02T11:53:19.456Z,16.47
2018-05-02T11:54:19.562Z,16.62
2018-05-02T11:55:19.429Z,16.67
2018-05-02T11:56:19.375Z,16.69
2018-05-02T11:57:19.370Z,16.76
2018-05-02T11:58:19.372Z,16.82
2018-05-02T11:59:19.302Z,16.81
2018-05-02T12:00:19.315Z,16.84
2018-05-02T12:01:19.288Z,16.91
2018-05-02T12:02:19.354Z,16.88
2018-05-02T12:03:19.234Z,16.95
2018-05-02T12:04:19.209Z,17.03
2018-05-02T12:05:19.207Z,17.12
2018-05-02T12:06:19.152Z,17.06
2018-05-02T12:07:19.131Z,17.12
2018-05-02T12:08:19.106Z,17.09
2018-05-02T12:09:19.064Z,16.94
2018-05-02T12:10:19.092Z,16.90
2018-05-02T12:11:19.043Z,16.94
2018-05-02T12:12:19.028Z,16.91
2018-05-02T12:13:18.972Z,16.92
2018-05-02T12:14:18.971Z,16.97
2018-05-02T12:15:18.924Z,16.91
2018-05-02T12:16:18.905Z,16.90
2018-05-02T12:17:18.895Z,16.99
2018-05-02T12:18:18.862Z,16.95
2018-05-02T12:19:18.839Z,16.97
2018-05-02T12:20:18.838Z,17.02
2018-05-02T12:21:18.767Z,17.07
2018-05-02T12:22:18.760Z,17.07
2018-05-02T12:23:18.745Z,17.21
2018-05-02T12:24:18.707Z,17.13
2018-05-02T12:25:18.690Z,17.21
2018-05-02T12:26:18.658Z,17.28
2018-05-02T12:27:18.665Z,17.24
2018-05-02T12:28:18.625Z,17.42
2018-05-02T12:29:18.597Z,17.42
2018-05-02T12:30:18.592Z,17.35
2018-05-02T12:31:18.550Z,17.32
2018-05-02T12:32:18.520Z,17.46
2018-05-02T12:33:18.511Z,17.42
2018-05-02T12:34:18.503Z,17.43
2018-05-02T12:35:18.454Z,17.47
2018-05-02T12:36:18.453Z,17.54
2018-05-02T12:37:18.418Z,17.47
2018-05-02T12:38:18.452Z,17.57
2018-05-02T12:39:18.411Z,17.57
2018-05-02T12:40:18.386Z,17.62
2018-05-02T12:41:18.346Z,17.54
2018-05-02T12:42:18.297Z,17.62
2018-05-02T12:43:18.284Z,17.71
2018-05-02T12:44:18.258Z,17.66
2018-05-02T12:45:18.241Z,17.76
2018-05-02T12:46:18.203Z,17.83
2018-05-02T12:47:18.222Z,17.86
2018-05-02T12:48:18.167Z,17.83
2018-05-02T12:49:18.144Z,17.94
2018-05-02T12:50:18.105Z,17.87
2018-05-02T12:51:18.102Z,17.92
2018-05-02T12:52:18.112Z,17.98
2018-05-02T12:53:18.042Z,17.95
2018-05-02T12:54:18.052Z,18.01
2018-05-02T12:55:18.003Z,18.08
2018-05-02T12:56:18.078Z,18.10
2018-05-02T12:57:17.990Z,18.08
2018-05-02T12:58:17.980Z,18.16
2018-05-02T12:59:17.972Z,18.19
2018-05-02T13:00:17.900Z,18.29
2018-05-02T13:01:17.870Z,18.19
2018-05-02T13:02:18.716Z,18.16
2018-05-02T13:03:17.830Z,18.19
2018-05-02T13:04:17.809Z,18.05
2018-05-02T13:05:17.795Z,18.16